Terminal Aerodrome Forecast
Issued by NWS

Home | Current Version | Previous Version | Text Only | Print | Product List | Glossary On
Versions: 1 2 3 4 5 6 7 8 9 10 11 12 13 14
000
FTUS42 KMLB 041909 AAA
TAFTIX
TAF AMD
KTIX 041909Z 0419/0518 13012KT P6SM VCTS SCT030CB OVC200
      TEMPO 0419/0421 VRB15G28KT 3SM TSRA BKN020CB OVC040
     FM042300 17004KT P6SM SCT040 OVC100
     FM050300 15003KT P6SM SCT120 BKN250=

USA.gov is the U.S. government's official web portal to all federal, state and local government web resources and services.